createdAt,value
2018-06-27T00:00:03.848Z,55.18
2018-06-27T00:01:04.036Z,57.62
2018-06-27T00:02:04.219Z,57.37
2018-06-27T00:03:04.395Z,57.62
2018-06-27T00:04:04.568Z,57.62
2018-06-27T00:05:04.741Z,57.62
2018-06-27T00:06:04.917Z,55.66
2018-06-27T00:07:05.090Z,53.96
2018-06-27T00:08:05.268Z,55.91
2018-06-27T00:09:05.437Z,56.88
2018-06-27T00:10:05.610Z,56.64
2018-06-27T00:11:05.783Z,56.64
2018-06-27T00:12:05.963Z,53.96
2018-06-27T00:13:06.133Z,54.20
2018-06-27T00:14:06.304Z,53.47
2018-06-27T00:15:06.484Z,55.91
2018-06-27T00:16:06.660Z,58.35
2018-06-27T00:17:06.834Z,57.13
2018-06-27T00:18:07.021Z,57.86
2018-06-27T00:19:07.202Z,57.62
2018-06-27T00:20:07.375Z,56.15
2018-06-27T00:21:07.547Z,54.44
2018-06-27T00:22:07.726Z,55.18
2018-06-27T00:23:07.940Z,56.88
2018-06-27T00:24:08.122Z,57.13
2018-06-27T00:25:08.124Z,53.96
2018-06-27T00:26:08.300Z,56.15
2018-06-27T00:27:08.485Z,56.64
2018-06-27T00:28:08.662Z,54.93
2018-06-27T00:29:08.829Z,55.18
2018-06-27T00:30:09.010Z,58.11
2018-06-27T00:31:09.181Z,57.13
2018-06-27T00:32:09.368Z,57.13
2018-06-27T00:33:09.559Z,58.35
2018-06-27T00:34:09.765Z,57.86
2018-06-27T00:35:09.963Z,56.88
2018-06-27T00:36:10.145Z,54.93
2018-06-27T00:37:10.324Z,57.37
2018-06-27T00:38:10.498Z,57.13
2018-06-27T00:39:10.670Z,56.88
2018-06-27T00:40:10.842Z,55.66
2018-06-27T00:41:11.023Z,60.55
2018-06-27T00:42:11.204Z,55.18
2018-06-27T00:43:11.379Z,56.64
2018-06-27T00:44:11.552Z,57.62
2018-06-27T00:45:11.736Z,57.62
2018-06-27T00:46:11.912Z,57.13
2018-06-27T00:47:12.108Z,55.42
2018-06-27T00:48:12.282Z,57.13
2018-06-27T00:49:12.468Z,55.66
2018-06-27T00:50:12.637Z,55.42
2018-06-27T00:51:13.462Z,58.11
2018-06-27T00:52:12.970Z,58.35
2018-06-27T00:53:13.142Z,57.37
2018-06-27T00:54:13.318Z,56.64
2018-06-27T00:55:13.511Z,56.40
2018-06-27T00:56:13.694Z,56.88
2018-06-27T00:57:13.863Z,57.13
2018-06-27T00:58:14.034Z,57.13
2018-06-27T00:59:14.229Z,57.62
2018-06-27T01:00:14.476Z,57.37
2018-06-27T01:01:14.604Z,54.93
2018-06-27T01:02:14.784Z,54.93
2018-06-27T01:03:14.955Z,56.15
2018-06-27T01:04:15.131Z,55.91
2018-06-27T01:05:15.305Z,54.69
2018-06-27T01:06:15.478Z,53.96
2018-06-27T01:07:15.648Z,54.69
2018-06-27T01:08:15.828Z,54.20
2018-06-27T01:09:16.003Z,54.69
2018-06-27T01:10:16.186Z,57.13
2018-06-27T01:11:16.357Z,57.86
2018-06-27T01:12:16.531Z,57.37
2018-06-27T01:13:16.706Z,57.37
2018-06-27T01:14:16.871Z,57.37
2018-06-27T01:15:17.046Z,57.62
2018-06-27T01:16:17.223Z,55.18
2018-06-27T01:17:17.404Z,54.69
2018-06-27T01:18:17.572Z,57.37
2018-06-27T01:19:17.744Z,57.62
2018-06-27T01:20:17.923Z,54.44
2018-06-27T01:21:18.090Z,56.64
2018-06-27T01:22:18.268Z,58.11
2018-06-27T01:23:18.434Z,55.18
2018-06-27T01:24:18.609Z,55.91
2018-06-27T01:25:18.784Z,57.37
2018-06-27T01:26:18.961Z,58.11
2018-06-27T01:27:19.141Z,58.35
2018-06-27T01:28:19.314Z,60.06
2018-06-27T01:29:19.488Z,57.13
2018-06-27T01:30:19.652Z,57.13
2018-06-27T01:31:19.849Z,57.86
2018-06-27T01:32:20.017Z,56.64
2018-06-27T01:33:20.190Z,57.62
2018-06-27T01:34:20.371Z,60.55
2018-06-27T01:35:20.544Z,54.93
2018-06-27T01:36:20.720Z,56.64
2018-06-27T01:37:20.888Z,59.57
2018-06-27T01:38:21.068Z,53.71
2018-06-27T01:39:21.252Z,56.88
2018-06-27T01:40:21.429Z,57.62
2018-06-27T01:41:21.601Z,57.37
2018-06-27T01:42:21.783Z,57.13
2018-06-27T01:43:21.953Z,57.86
2018-06-27T01:44:22.132Z,57.37
2018-06-27T01:45:22.314Z,56.64
2018-06-27T01:46:22.491Z,54.69
2018-06-27T01:47:22.672Z,55.18
2018-06-27T01:48:22.846Z,58.11
2018-06-27T01:49:23.029Z,57.37
2018-06-27T01:50:23.202Z,55.18
2018-06-27T01:51:23.367Z,54.20
2018-06-27T01:52:23.546Z,55.18
2018-06-27T01:53:23.716Z,54.69
2018-06-27T01:54:23.889Z,55.42
2018-06-27T01:55:24.066Z,57.86
2018-06-27T01:56:24.235Z,57.62
2018-06-27T01:57:24.419Z,57.62
2018-06-27T01:58:24.590Z,57.86
2018-06-27T01:59:24.766Z,59.08
2018-06-27T02:00:24.943Z,57.86
2018-06-27T02:01:25.111Z,57.86
2018-06-27T02:02:25.285Z,57.86
2018-06-27T02:03:25.452Z,57.62
2018-06-27T02:04:25.631Z,57.86
2018-06-27T02:05:25.802Z,57.62
2018-06-27T02:06:25.982Z,56.15
2018-06-27T02:07:26.157Z,56.64
2018-06-27T02:08:26.332Z,58.59
2018-06-27T02:09:26.514Z,58.11
2018-06-27T02:10:26.681Z,58.59
2018-06-27T02:11:26.855Z,57.13
2018-06-27T02:12:27.027Z,56.88
2018-06-27T02:13:27.203Z,57.13
2018-06-27T02:14:27.384Z,56.88
2018-06-27T02:15:27.554Z,56.64
2018-06-27T02:16:27.720Z,56.40
2018-06-27T02:17:27.894Z,60.30
2018-06-27T02:18:28.065Z,58.35
2018-06-27T02:19:28.241Z,58.84
2018-06-27T02:20:28.412Z,57.37
2018-06-27T02:21:28.582Z,57.13
2018-06-27T02:22:28.760Z,59.08
2018-06-27T02:23:28.938Z,57.86
2018-06-27T02:24:29.113Z,58.59
2018-06-27T02:25:29.281Z,58.59
2018-06-27T02:26:29.451Z,58.84
2018-06-27T02:27:29.688Z,58.59
2018-06-27T02:28:29.804Z,58.84
2018-06-27T02:29:29.986Z,58.11
2018-06-27T02:30:30.153Z,57.86
2018-06-27T02:31:30.328Z,56.64
2018-06-27T02:32:30.497Z,57.62
2018-06-27T02:33:30.671Z,57.13
2018-06-27T02:34:30.849Z,57.13
2018-06-27T02:35:31.022Z,58.84
2018-06-27T02:36:31.209Z,58.35
2018-06-27T02:37:31.375Z,60.55
2018-06-27T02:38:31.556Z,59.81
2018-06-27T02:39:31.726Z,58.59
2018-06-27T02:40:31.903Z,57.62
2018-06-27T02:41:32.078Z,59.33
2018-06-27T02:42:32.255Z,60.06
2018-06-27T02:43:32.426Z,59.33
2018-06-27T02:44:32.598Z,60.30
2018-06-27T02:45:32.791Z,59.57
2018-06-27T02:46:32.954Z,59.57
2018-06-27T02:47:33.123Z,59.33
2018-06-27T02:48:33.302Z,60.06
2018-06-27T02:49:33.464Z,60.55
2018-06-27T02:50:33.642Z,58.84
2018-06-27T02:51:33.812Z,59.57
2018-06-27T02:52:33.989Z,59.08
2018-06-27T02:53:34.162Z,58.84
2018-06-27T02:54:34.337Z,56.64
2018-06-27T02:55:34.515Z,57.86
2018-06-27T02:56:34.691Z,60.06
2018-06-27T02:57:34.862Z,60.55
2018-06-27T02:58:35.041Z,59.08
2018-06-27T02:59:35.215Z,59.08
2018-06-27T03:00:35.387Z,59.57
2018-06-27T03:01:35.573Z,60.06
2018-06-27T03:02:35.983Z,60.55
2018-06-27T03:03:35.963Z,59.57
2018-06-27T03:04:36.146Z,60.06
2018-06-27T03:05:36.322Z,61.04
2018-06-27T03:06:36.515Z,58.59
2018-06-27T03:07:36.686Z,60.30
2018-06-27T03:08:36.856Z,61.52
2018-06-27T03:09:37.029Z,62.74
2018-06-27T03:10:37.200Z,64.21
2018-06-27T03:11:37.388Z,62.74
2018-06-27T03:12:37.559Z,61.28
2018-06-27T03:13:37.732Z,60.55
2018-06-27T03:14:37.912Z,59.57
2018-06-27T03:15:38.096Z,62.50
2018-06-27T03:16:38.281Z,61.04
2018-06-27T03:17:38.455Z,64.45
2018-06-27T03:18:38.623Z,62.50
2018-06-27T03:19:38.803Z,62.01
2018-06-27T03:20:38.986Z,59.33
2018-06-27T03:21:39.171Z,60.55
2018-06-27T03:22:39.344Z,60.06
2018-06-27T03:23:39.515Z,71.04
2018-06-27T03:24:39.713Z,66.41
2018-06-27T03:25:39.897Z,60.79
2018-06-27T03:26:40.075Z,60.06
2018-06-27T03:27:40.268Z,59.08
2018-06-27T03:28:40.449Z,62.26
2018-06-27T03:29:40.620Z,59.81
2018-06-27T03:30:40.794Z,58.35
2018-06-27T03:31:40.980Z,61.04
2018-06-27T03:32:41.162Z,58.84
2018-06-27T03:33:41.347Z,59.08
2018-06-27T03:34:41.549Z,59.57
2018-06-27T03:35:41.719Z,58.11
2018-06-27T03:36:41.896Z,59.33
2018-06-27T03:37:42.067Z,58.59
2018-06-27T03:38:42.282Z,58.59
2018-06-27T03:39:42.380Z,62.01
2018-06-27T03:40:42.558Z,62.01
2018-06-27T03:41:42.754Z,61.04
2018-06-27T03:42:42.958Z,59.81
2018-06-27T03:43:43.130Z,58.59
2018-06-27T03:44:43.329Z,61.28
2018-06-27T03:45:43.667Z,60.06
2018-06-27T03:46:43.608Z,59.81
2018-06-27T03:47:43.797Z,60.55
2018-06-27T03:48:43.966Z,61.28
2018-06-27T03:49:44.158Z,64.94
2018-06-27T03:50:44.319Z,59.81
2018-06-27T03:51:44.495Z,59.08
2018-06-27T03:52:44.669Z,59.57
2018-06-27T03:53:44.839Z,57.37
2018-06-27T03:54:45.405Z,58.59
2018-06-27T03:55:45.193Z,58.11
2018-06-27T03:56:45.400Z,57.86
2018-06-27T03:57:45.569Z,58.59
2018-06-27T03:58:45.755Z,58.84
2018-06-27T03:59:45.928Z,58.11
2018-06-27T04:00:46.111Z,59.57
2018-06-27T04:01:46.283Z,59.33
2018-06-27T04:02:46.451Z,61.77
2018-06-27T04:03:46.626Z,61.04
2018-06-27T04:04:46.797Z,59.81
2018-06-27T04:05:46.981Z,61.52
2018-06-27T04:06:47.158Z,59.57
2018-06-27T04:07:47.349Z,57.37
2018-06-27T04:08:47.528Z,58.11
2018-06-27T04:09:47.694Z,61.04
2018-06-27T04:10:47.867Z,59.57
2018-06-27T04:11:48.054Z,60.30
2018-06-27T04:12:48.278Z,60.79
2018-06-27T04:13:48.395Z,62.50
2018-06-27T04:14:48.564Z,62.74
2018-06-27T04:15:48.742Z,66.65
2018-06-27T04:16:48.927Z,64.94
2018-06-27T04:17:49.093Z,64.94
2018-06-27T04:18:49.274Z,64.94
2018-06-27T04:19:49.454Z,59.33
2018-06-27T04:20:49.629Z,60.06
2018-06-27T04:21:49.802Z,58.35
2018-06-27T04:22:49.979Z,57.13
2018-06-27T04:23:50.151Z,58.59
2018-06-27T04:24:50.328Z,58.11
2018-06-27T04:25:50.503Z,59.08
2018-06-27T04:26:50.676Z,58.84
2018-06-27T04:27:50.848Z,59.81
2018-06-27T04:28:51.021Z,58.59
2018-06-27T04:29:51.194Z,59.33
2018-06-27T04:30:51.367Z,59.08
2018-06-27T04:31:51.550Z,61.77
2018-06-27T04:32:51.732Z,64.45
2018-06-27T04:33:51.915Z,62.01
2018-06-27T04:34:52.088Z,61.04
2018-06-27T04:35:52.340Z,63.23
2018-06-27T04:36:52.444Z,62.01
2018-06-27T04:37:52.619Z,60.30
2018-06-27T04:38:52.794Z,60.06
2018-06-27T04:39:57.526Z,60.55
2018-06-27T04:40:57.789Z,62.01
2018-06-27T04:41:57.486Z,61.77
2018-06-27T04:42:56.727Z,59.57
2018-06-27T04:43:57.530Z,60.30
2018-06-27T04:44:56.149Z,61.28
2018-06-27T04:45:57.281Z,58.84
2018-06-27T04:46:55.647Z,61.77
2018-06-27T04:47:55.900Z,57.86
2018-06-27T04:48:55.785Z,58.11
2018-06-27T04:49:54.617Z,57.37
2018-06-27T04:50:54.844Z,70.80
2018-06-27T04:51:55.760Z,56.64
2018-06-27T04:52:55.285Z,60.30
2018-06-27T04:53:56.277Z,57.86
2018-06-27T04:54:55.408Z,58.59
2018-06-27T04:55:55.562Z,61.04
2018-06-27T04:56:55.744Z,61.77
2018-06-27T04:57:55.916Z,64.45
2018-06-27T04:58:56.094Z,63.48
2018-06-27T04:59:56.282Z,64.45
2018-06-27T05:00:56.466Z,65.43
2018-06-27T05:01:56.652Z,58.11
2018-06-27T05:02:56.824Z,57.86
2018-06-27T05:03:57.007Z,59.08
2018-06-27T05:04:57.189Z,57.62
2018-06-27T05:05:57.574Z,56.64
2018-06-27T05:06:57.561Z,56.64
2018-06-27T05:07:57.766Z,57.13
2018-06-27T05:08:57.937Z,57.37
2018-06-27T05:09:58.111Z,57.37
2018-06-27T05:10:58.289Z,57.13
2018-06-27T05:11:58.471Z,56.88
2018-06-27T05:12:58.654Z,58.11
2018-06-27T05:13:58.831Z,59.33
2018-06-27T05:14:59.881Z,59.33
2018-06-27T05:15:59.222Z,57.62
2018-06-27T05:16:59.353Z,62.50
2018-06-27T05:17:59.533Z,60.55
2018-06-27T05:18:59.722Z,56.64
2018-06-27T05:19:59.924Z,58.11
2018-06-27T05:21:00.744Z,59.57
2018-06-27T05:22:00.278Z,62.01
2018-06-27T05:23:00.487Z,62.01
2018-06-27T05:24:00.764Z,60.30
2018-06-27T05:25:00.883Z,60.30
2018-06-27T05:26:00.979Z,61.28
2018-06-27T05:27:01.063Z,58.59
2018-06-27T05:28:01.298Z,59.08
2018-06-27T05:29:01.360Z,60.06
2018-06-27T05:30:01.539Z,58.84
2018-06-27T05:31:01.722Z,58.11
2018-06-27T05:32:02.225Z,62.50
2018-06-27T05:33:02.337Z,61.52
2018-06-27T05:34:02.360Z,56.40
2018-06-27T05:35:02.463Z,56.40
2018-06-27T05:36:02.645Z,58.59
2018-06-27T05:37:02.829Z,61.77
2018-06-27T05:38:03.006Z,61.04
2018-06-27T05:39:03.189Z,62.26
2018-06-27T05:40:03.372Z,59.08
2018-06-27T05:41:03.544Z,57.37
2018-06-27T05:42:03.722Z,59.08
2018-06-27T05:43:03.892Z,59.57
2018-06-27T05:44:04.105Z,60.55
2018-06-27T05:45:04.283Z,60.06
2018-06-27T05:46:04.456Z,57.86
2018-06-27T05:47:04.636Z,61.04
2018-06-27T05:48:04.853Z,58.84
2018-06-27T05:49:05.023Z,57.13
2018-06-27T05:50:05.200Z,57.62
2018-06-27T05:51:05.423Z,58.11
2018-06-27T05:52:05.550Z,58.59
2018-06-27T05:53:05.737Z,56.88
2018-06-27T05:54:05.940Z,59.08
2018-06-27T05:55:06.122Z,63.96
2018-06-27T05:56:06.299Z,57.86
2018-06-27T05:57:06.478Z,61.04
2018-06-27T05:58:06.667Z,57.37
2018-06-27T05:59:06.840Z,65.67
2018-06-27T06:00:07.020Z,56.40
2018-06-27T06:01:07.201Z,60.30
2018-06-27T06:02:07.387Z,58.59
2018-06-27T06:03:07.567Z,58.11
2018-06-27T06:04:07.750Z,55.66
2018-06-27T06:05:07.930Z,57.62
2018-06-27T06:06:08.226Z,56.15
2018-06-27T06:07:08.321Z,58.59
2018-06-27T06:08:08.500Z,56.88
2018-06-27T06:09:09.195Z,57.13
2018-06-27T06:10:09.220Z,57.86
2018-06-27T06:11:09.032Z,60.06
2018-06-27T06:12:09.179Z,58.35
2018-06-27T06:13:09.372Z,60.30
2018-06-27T06:14:09.545Z,59.33
2018-06-27T06:15:09.733Z,55.66
2018-06-27T06:16:10.047Z,58.11
2018-06-27T06:17:10.115Z,60.06
2018-06-27T06:18:10.301Z,58.59
2018-06-27T06:19:10.475Z,59.81
2018-06-27T06:20:10.666Z,56.88
2018-06-27T06:21:10.855Z,56.64
2018-06-27T06:22:11.043Z,56.15
2018-06-27T06:23:11.268Z,65.92
2018-06-27T06:24:11.402Z,59.57
2018-06-27T06:25:12.040Z,55.42
2018-06-27T06:26:12.174Z,55.42
2018-06-27T06:27:11.708Z,57.62
2018-06-27T06:28:11.895Z,57.13
2018-06-27T06:29:12.126Z,58.11
2018-06-27T06:30:12.186Z,58.59
2018-06-27T06:31:12.383Z,59.33
2018-06-27T06:32:12.659Z,56.88
2018-06-27T06:33:12.689Z,55.66
2018-06-27T06:34:12.891Z,55.18
2018-06-27T06:35:13.069Z,54.93
2018-06-27T06:36:13.253Z,55.91
2018-06-27T06:37:13.476Z,60.06
2018-06-27T06:38:13.667Z,56.64
2018-06-27T06:39:13.923Z,55.66
2018-06-27T06:40:13.985Z,63.72
2018-06-27T06:41:14.204Z,55.66
2018-06-27T06:42:14.282Z,55.42
2018-06-27T06:43:14.592Z,58.35
2018-06-27T06:44:15.061Z,60.55
2018-06-27T06:45:14.932Z,59.57
2018-06-27T06:46:15.262Z,54.69
2018-06-27T06:47:15.404Z,54.20
2018-06-27T06:48:15.448Z,57.13
2018-06-27T06:49:15.641Z,54.44
2018-06-27T06:50:15.847Z,55.18
2018-06-27T06:51:16.222Z,54.44
2018-06-27T06:52:16.324Z,55.42
2018-06-27T06:53:16.382Z,54.20
2018-06-27T06:54:16.611Z,56.15
2018-06-27T06:55:16.834Z,56.88
2018-06-27T06:56:17.024Z,54.69
2018-06-27T06:57:17.283Z,55.42
2018-06-27T06:58:17.254Z,65.67
2018-06-27T06:59:17.457Z,53.96
2018-06-27T07:00:17.703Z,56.40
2018-06-27T07:01:17.801Z,56.15
2018-06-27T07:02:18.020Z,55.42
2018-06-27T07:03:18.118Z,57.13
2018-06-27T07:04:18.458Z,55.42
2018-06-27T07:05:18.589Z,56.64
2018-06-27T07:06:19.503Z,53.96
2018-06-27T07:07:19.614Z,57.62
2018-06-27T07:08:19.075Z,53.47
2018-06-27T07:09:19.671Z,60.79
2018-06-27T07:10:21.977Z,51.76
2018-06-27T07:11:20.522Z,51.51
2018-06-27T07:12:21.770Z,57.13
2018-06-27T07:13:20.234Z,57.13
2018-06-27T07:14:20.388Z,62.26
2018-06-27T07:15:22.436Z,58.59
2018-06-27T07:16:20.516Z,60.55
2018-06-27T07:17:20.705Z,53.96
2018-06-27T07:18:21.212Z,55.91
2018-06-27T07:19:21.138Z,52.73
2018-06-27T07:20:21.387Z,52.25
2018-06-27T07:21:21.454Z,51.76
2018-06-27T07:22:21.741Z,52.00
2018-06-27T07:23:22.263Z,52.73
2018-06-27T07:24:22.135Z,52.73
2018-06-27T07:25:22.315Z,52.49
2018-06-27T07:26:22.277Z,53.47
2018-06-27T07:27:22.475Z,55.18
2018-06-27T07:28:22.842Z,52.25
2018-06-27T07:29:22.945Z,54.44
2018-06-27T07:30:23.090Z,54.20
2018-06-27T07:31:23.212Z,55.66
2018-06-27T07:32:23.326Z,60.06
2018-06-27T07:33:23.544Z,54.44
2018-06-27T07:34:23.750Z,54.20
2018-06-27T07:35:24.101Z,55.18
2018-06-27T07:36:24.261Z,55.18
2018-06-27T07:37:24.258Z,52.49
2018-06-27T07:38:24.451Z,53.47
2018-06-27T07:39:24.675Z,52.49
2018-06-27T07:40:25.035Z,51.03
2018-06-27T07:41:25.069Z,52.25
2018-06-27T07:42:25.462Z,52.25
2018-06-27T07:43:25.532Z,53.47
2018-06-27T07:44:25.716Z,52.00
2018-06-27T07:45:26.037Z,57.37
2018-06-27T07:46:26.100Z,53.71
2018-06-27T07:47:26.268Z,51.76
2018-06-27T07:48:26.454Z,52.00
2018-06-27T07:49:26.660Z,54.93
2018-06-27T07:50:26.864Z,53.47
2018-06-27T07:51:31.976Z,52.00
2018-06-27T07:52:28.784Z,52.00
2018-06-27T07:53:27.521Z,52.00
2018-06-27T07:54:27.613Z,52.98
2018-06-27T07:55:27.822Z,51.76
2018-06-27T07:56:28.078Z,52.98
2018-06-27T07:57:28.253Z,53.47
2018-06-27T07:58:28.814Z,53.47
2018-06-27T07:59:28.648Z,54.44
2018-06-27T08:00:28.841Z,53.47
2018-06-27T08:01:29.211Z,53.71
2018-06-27T08:02:29.229Z,54.44
2018-06-27T08:03:29.422Z,51.51
2018-06-27T08:04:29.611Z,52.49
2018-06-27T08:05:29.807Z,52.25
2018-06-27T08:06:30.031Z,54.20
2018-06-27T08:07:30.123Z,52.00
2018-06-27T08:08:30.318Z,57.13
2018-06-27T08:09:30.509Z,54.20
2018-06-27T08:10:30.706Z,55.18
2018-06-27T08:11:30.995Z,53.22
2018-06-27T08:12:31.136Z,52.98
2018-06-27T08:13:31.240Z,53.96
2018-06-27T08:14:31.322Z,52.00
2018-06-27T08:15:31.516Z,54.93
2018-06-27T08:16:31.944Z,53.96
2018-06-27T08:17:31.950Z,55.66
2018-06-27T08:18:32.149Z,55.66
2018-06-27T08:19:32.409Z,52.25
2018-06-27T08:20:32.502Z,57.37
2018-06-27T08:21:32.708Z,55.42
2018-06-27T08:22:33.237Z,54.20
2018-06-27T08:23:33.566Z,55.18
2018-06-27T08:24:33.662Z,56.40
2018-06-27T08:25:33.827Z,52.49
2018-06-27T08:26:33.856Z,53.96
2018-06-27T08:27:33.997Z,53.71
2018-06-27T08:28:34.162Z,52.73
2018-06-27T08:29:34.476Z,55.66
2018-06-27T08:30:35.422Z,54.69
2018-06-27T08:31:34.506Z,51.51
2018-06-27T08:32:34.937Z,52.00
2018-06-27T08:33:35.285Z,54.93
2018-06-27T08:34:35.095Z,52.49
2018-06-27T08:35:35.591Z,50.78
2018-06-27T08:36:35.521Z,56.40
2018-06-27T08:37:36.071Z,53.22
2018-06-27T08:38:36.008Z,54.20
2018-06-27T08:39:36.198Z,53.47
2018-06-27T08:40:39.307Z,52.49
2018-06-27T08:41:37.071Z,55.66
2018-06-27T08:42:36.689Z,52.49
2018-06-27T08:43:36.750Z,55.42
2018-06-27T08:44:36.949Z,54.93
2018-06-27T08:45:37.141Z,53.22
2018-06-27T08:46:37.335Z,53.96
2018-06-27T08:47:37.537Z,54.44
2018-06-27T08:48:37.774Z,55.18
2018-06-27T08:49:37.979Z,57.13
2018-06-27T08:50:38.176Z,54.20
2018-06-27T08:51:38.419Z,54.93
2018-06-27T08:52:38.497Z,56.15
2018-06-27T08:53:38.694Z,57.37
2018-06-27T08:54:38.887Z,52.98
2018-06-27T08:55:39.078Z,52.25
2018-06-27T08:56:39.287Z,52.98
2018-06-27T08:57:39.920Z,52.98
2018-06-27T08:58:39.699Z,52.98
2018-06-27T08:59:39.897Z,52.49
2018-06-27T09:00:40.097Z,51.27
2018-06-27T09:01:40.322Z,53.96
2018-06-27T09:02:40.518Z,52.73
2018-06-27T09:03:40.780Z,52.73
2018-06-27T09:04:40.917Z,51.76
2018-06-27T09:05:41.112Z,51.76
2018-06-27T09:06:41.303Z,53.71
2018-06-27T09:07:41.500Z,51.51
2018-06-27T09:08:41.692Z,53.96
2018-06-27T09:09:41.918Z,52.49
2018-06-27T09:10:42.072Z,52.49
2018-06-27T09:11:42.272Z,55.18
2018-06-27T09:12:42.473Z,55.18
2018-06-27T09:13:42.666Z,52.25
2018-06-27T09:14:42.857Z,52.00
2018-06-27T09:15:43.049Z,52.98
2018-06-27T09:16:43.244Z,53.47
2018-06-27T09:17:43.450Z,53.47
2018-06-27T09:18:43.671Z,53.71
2018-06-27T09:19:43.855Z,58.11
2018-06-27T09:20:44.047Z,56.64
2018-06-27T09:21:44.458Z,60.30
2018-06-27T09:22:44.715Z,52.00
2018-06-27T09:23:44.682Z,52.49
2018-06-27T09:24:44.877Z,52.98
2018-06-27T09:25:45.064Z,52.25
2018-06-27T09:26:45.396Z,52.73
2018-06-27T09:27:45.511Z,52.00
2018-06-27T09:28:45.728Z,51.51
2018-06-27T09:29:45.790Z,51.27
2018-06-27T09:30:45.999Z,52.00
2018-06-27T09:31:46.191Z,51.76
2018-06-27T09:32:46.382Z,51.03
2018-06-27T09:33:46.581Z,51.27
2018-06-27T09:34:46.768Z,53.22
2018-06-27T09:35:46.965Z,52.00
2018-06-27T09:36:47.170Z,54.44
2018-06-27T09:37:47.366Z,53.22
2018-06-27T09:38:47.554Z,61.28
2018-06-27T09:39:47.879Z,53.96
2018-06-27T09:40:47.912Z,53.22
2018-06-27T09:41:48.091Z,52.73
2018-06-27T09:42:48.739Z,52.49
2018-06-27T09:43:48.549Z,52.25
2018-06-27T09:44:48.767Z,52.49
2018-06-27T09:45:48.958Z,52.49
2018-06-27T09:46:49.143Z,52.98
2018-06-27T09:47:49.349Z,52.00
2018-06-27T09:48:49.568Z,53.22
2018-06-27T09:49:49.761Z,53.22
2018-06-27T09:50:49.987Z,54.20
2018-06-27T09:51:50.254Z,53.22
2018-06-27T09:52:50.295Z,54.20
2018-06-27T09:53:50.489Z,55.91
2018-06-27T09:54:50.688Z,55.18
2018-06-27T09:55:50.877Z,53.96
2018-06-27T09:56:51.191Z,54.44
2018-06-27T09:57:51.267Z,55.66
2018-06-27T09:58:51.462Z,53.47
2018-06-27T09:59:51.663Z,53.47
2018-06-27T10:00:51.856Z,54.93
2018-06-27T10:01:52.053Z,54.44
2018-06-27T10:02:52.610Z,53.47
2018-06-27T10:03:52.821Z,57.13
2018-06-27T10:04:52.958Z,52.98
2018-06-27T10:05:53.230Z,54.93
2018-06-27T10:06:53.320Z,54.69
2018-06-27T10:07:53.503Z,55.42
2018-06-27T10:08:54.306Z,56.64
2018-06-27T10:09:53.520Z,53.96
2018-06-27T10:10:53.703Z,55.18
2018-06-27T10:11:53.896Z,54.69
2018-06-27T10:12:54.088Z,56.15
2018-06-27T10:13:54.288Z,61.77
2018-06-27T10:14:54.477Z,53.96
2018-06-27T10:15:54.664Z,55.18
2018-06-27T10:16:55.295Z,55.91
2018-06-27T10:17:55.378Z,55.66
2018-06-27T10:18:55.672Z,54.20
2018-06-27T10:19:55.653Z,55.18
2018-06-27T10:20:55.576Z,55.18
2018-06-27T10:21:56.185Z,56.15
2018-06-27T10:22:56.306Z,57.13
2018-06-27T10:23:57.106Z,55.91
2018-06-27T10:24:56.620Z,55.91
2018-06-27T10:25:56.710Z,58.11
2018-06-27T10:26:56.858Z,55.66
2018-06-27T10:27:56.871Z,55.66
2018-06-27T10:28:57.228Z,59.08
2018-06-27T10:29:57.488Z,57.86
2018-06-27T10:30:57.675Z,56.40
2018-06-27T10:31:57.851Z,58.11
2018-06-27T10:32:57.819Z,55.66
2018-06-27T10:33:58.648Z,54.44
2018-06-27T10:34:58.284Z,55.42
2018-06-27T10:35:58.437Z,54.44
2018-06-27T10:36:58.619Z,54.20
2018-06-27T10:37:58.805Z,54.44
2018-06-27T10:38:58.992Z,56.88
2018-06-27T10:39:59.195Z,56.64
2018-06-27T10:40:59.358Z,56.15
2018-06-27T10:41:59.541Z,54.69
2018-06-27T10:42:59.726Z,56.40
2018-06-27T10:43:59.915Z,55.42
2018-06-27T10:45:00.105Z,55.18
2018-06-27T10:46:00.300Z,54.20
2018-06-27T10:47:00.487Z,53.96
2018-06-27T10:48:00.670Z,53.47
2018-06-27T10:49:00.857Z,56.64
2018-06-27T10:50:01.044Z,56.64
2018-06-27T10:51:01.227Z,55.42
2018-06-27T10:52:01.410Z,55.66
2018-06-27T10:53:01.593Z,54.69
2018-06-27T10:54:01.806Z,56.15
2018-06-27T10:55:01.990Z,54.20
2018-06-27T10:56:02.176Z,55.66
2018-06-27T10:57:02.368Z,56.88
2018-06-27T10:58:02.556Z,56.64
2018-06-27T10:59:02.740Z,54.93
2018-06-27T11:00:02.938Z,54.93
2018-06-27T11:01:03.143Z,55.18
2018-06-27T11:02:03.325Z,56.40
2018-06-27T11:03:03.525Z,57.62
2018-06-27T11:04:03.727Z,66.16
2018-06-27T11:05:03.911Z,55.42
2018-06-27T11:06:04.102Z,55.42
2018-06-27T11:07:04.290Z,56.15
2018-06-27T11:08:04.477Z,55.42
2018-06-27T11:09:04.666Z,55.42
2018-06-27T11:10:04.855Z,55.18
2018-06-27T11:11:05.098Z,54.69
2018-06-27T11:12:05.260Z,55.42
2018-06-27T11:13:05.478Z,55.18
2018-06-27T11:14:05.662Z,56.64
2018-06-27T11:15:05.843Z,55.91
2018-06-27T11:16:06.022Z,57.13
2018-06-27T11:17:06.206Z,58.11
2018-06-27T11:18:06.398Z,55.42
2018-06-27T11:19:06.585Z,54.93
2018-06-27T11:20:06.772Z,59.57
2018-06-27T11:21:06.951Z,56.15
2018-06-27T11:22:07.147Z,55.42
2018-06-27T11:23:07.349Z,54.69
2018-06-27T11:24:07.547Z,54.69
2018-06-27T11:25:07.758Z,55.91
2018-06-27T11:26:07.931Z,57.62
2018-06-27T11:27:08.138Z,58.59
2018-06-27T11:28:08.319Z,58.84
2018-06-27T11:29:08.502Z,57.37
2018-06-27T11:30:08.713Z,60.30
2018-06-27T11:31:08.912Z,58.11
2018-06-27T11:32:09.092Z,57.62
2018-06-27T11:33:09.288Z,55.66
2018-06-27T11:34:09.523Z,54.20
2018-06-27T11:35:09.672Z,59.33
2018-06-27T11:36:09.867Z,55.91
2018-06-27T11:37:10.052Z,58.11
2018-06-27T11:38:10.678Z,54.69
2018-06-27T11:39:10.564Z,58.84
2018-06-27T11:40:10.574Z,55.42
2018-06-27T11:41:10.781Z,56.40
2018-06-27T11:42:10.965Z,57.86
2018-06-27T11:43:11.214Z,55.66
2018-06-27T11:44:11.378Z,61.28
2018-06-27T11:45:11.682Z,57.13
2018-06-27T11:46:11.802Z,56.40
2018-06-27T11:47:11.860Z,58.59
2018-06-27T11:48:12.051Z,59.81
2018-06-27T11:49:12.336Z,57.62
2018-06-27T11:50:12.740Z,58.84
2018-06-27T11:51:12.599Z,57.13
2018-06-27T11:52:12.796Z,56.40
2018-06-27T11:53:13.008Z,57.13
2018-06-27T11:54:13.182Z,56.64
2018-06-27T11:55:13.368Z,57.13
2018-06-27T11:56:13.552Z,58.59
2018-06-27T11:57:13.747Z,57.13
2018-06-27T11:58:13.970Z,56.88
2018-06-27T11:59:14.161Z,61.52
2018-06-27T12:00:14.339Z,59.33
2018-06-27T12:01:14.500Z,59.57
2018-06-27T12:02:14.683Z,58.35
2018-06-27T12:03:14.862Z,58.11
2018-06-27T12:04:15.127Z,59.33
2018-06-27T12:05:15.639Z,57.13
2018-06-27T12:06:15.390Z,59.81
2018-06-27T12:07:15.750Z,55.91
2018-06-27T12:08:15.767Z,56.88
2018-06-27T12:09:16.464Z,58.35
2018-06-27T12:10:16.315Z,62.26
2018-06-27T12:11:16.399Z,58.59
2018-06-27T12:12:16.608Z,58.59
2018-06-27T12:13:16.803Z,57.37
2018-06-27T12:14:17.010Z,55.91
2018-06-27T12:15:17.324Z,55.66
2018-06-27T12:16:17.412Z,54.93
2018-06-27T12:17:17.664Z,56.40
2018-06-27T12:18:18.333Z,56.15
2018-06-27T12:19:18.085Z,57.13
2018-06-27T12:20:17.987Z,58.84
2018-06-27T12:21:18.403Z,64.45
2018-06-27T12:22:18.453Z,69.09
2018-06-27T12:23:19.021Z,60.06
2018-06-27T12:24:19.269Z,57.62
2018-06-27T12:25:19.008Z,56.40
2018-06-27T12:26:19.018Z,58.11
2018-06-27T12:27:19.136Z,56.40
2018-06-27T12:28:19.336Z,59.08
2018-06-27T12:29:19.516Z,57.62
2018-06-27T12:30:19.699Z,57.86
2018-06-27T12:31:19.881Z,55.42
2018-06-27T12:32:20.086Z,56.88
2018-06-27T12:33:20.270Z,57.86
2018-06-27T12:34:20.524Z,57.13
2018-06-27T12:35:20.586Z,56.88
2018-06-27T12:36:20.779Z,57.13
2018-06-27T12:37:20.977Z,57.13
2018-06-27T12:38:21.173Z,57.13
2018-06-27T12:39:21.427Z,54.93
2018-06-27T12:40:21.593Z,57.13
2018-06-27T12:41:21.820Z,59.08
2018-06-27T12:42:21.968Z,55.42
2018-06-27T12:43:22.152Z,57.37
2018-06-27T12:44:22.393Z,57.13
2018-06-27T12:45:22.543Z,57.13
2018-06-27T12:46:22.723Z,55.42
2018-06-27T12:47:22.900Z,55.91
2018-06-27T12:48:23.097Z,57.37
2018-06-27T12:49:23.275Z,58.11
2018-06-27T12:50:23.508Z,61.52
2018-06-27T12:51:23.676Z,63.23
2018-06-27T12:52:24.015Z,57.13
2018-06-27T12:53:24.055Z,58.35
2018-06-27T12:54:24.224Z,59.57